sensor_id;sensor_type;location;lat;lon;timestamp;pressure;altitude;pressure_sealevel;temperature;humidity
34297;BME280;20564;42.902;25.336;2023-05-23T00:00:10;97034.22;;;9.61;100.00
34297;BME280;20564;42.902;25.336;2023-05-23T00:02:40;97030.63;;;9.53;100.00
34297;BME280;20564;42.902;25.336;2023-05-23T00:05:07;97030.75;;;9.61;100.00
34297;BME280;20564;42.902;25.336;2023-05-23T00:07:34;97025.50;;;9.61;100.00
34297;BME280;20564;42.902;25.336;2023-05-23T00:10:03;97023.97;;;9.49;100.00
34297;BME280;20564;42.902;25.336;2023-05-23T00:12:30;97025.63;;;9.50;100.00
34297;BME280;20564;42.902;25.336;2023-05-23T00:15:02;97018.03;;;9.47;100.00
34297;BME280;20564;42.902;25.336;2023-05-23T00:17:30;97016.63;;;9.42;100.00
34297;BME280;20564;42.902;25.336;2023-05-23T00:19:57;97020.38;;;9.50;100.00
34297;BME280;20564;42.902;25.336;2023-05-23T00:22:24;97022.59;;;9.45;100.00
34297;BME280;20564;42.902;25.336;2023-05-23T00:24:52;97019.84;;;9.36;100.00
34297;BME280;20564;42.902;25.336;2023-05-23T00:27:19;97014.84;;;9.43;100.00
34297;BME280;20564;42.902;25.336;2023-05-23T00:29:49;97020.41;;;9.40;100.00
34297;BME280;20564;42.902;25.336;2023-05-23T00:32:16;97014.56;;;9.46;100.00
34297;BME280;20564;42.902;25.336;2023-05-23T00:34:44;97018.72;;;9.39;100.00
34297;BME280;20564;42.902;25.336;2023-05-23T00:37:11;97015.94;;;9.31;100.00
34297;BME280;20564;42.902;25.336;2023-05-23T00:39:39;97018.16;;;9.35;100.00
34297;BME280;20564;42.902;25.336;2023-05-23T00:42:06;97022.28;;;9.28;100.00
34297;BME280;20564;42.902;25.336;2023-05-23T00:44:34;97022.59;;;9.25;100.00
34297;BME280;20564;42.902;25.336;2023-05-23T00:47:01;97012.91;;;9.26;100.00
34297;BME280;20564;42.902;25.336;2023-05-23T00:49:29;97016.47;;;9.25;100.00
34297;BME280;20564;42.902;25.336;2023-05-23T00:51:57;97013.19;;;9.23;100.00
34297;BME280;20564;42.902;25.336;2023-05-23T00:54:26;97015.91;;;9.21;100.00
34297;BME280;20564;42.902;25.336;2023-05-23T00:56:55;97016.22;;;9.18;100.00
34297;BME280;20564;42.902;25.336;2023-05-23T00:59:24;97016.34;;;9.16;100.00
34297;BME280;20564;42.902;25.336;2023-05-23T01:01:53;97020.06;;;9.14;100.00
34297;BME280;20564;42.902;25.336;2023-05-23T01:04:21;97012.63;;;9.19;100.00
34297;BME280;20564;42.902;25.336;2023-05-23T01:06:56;97009.56;;;9.14;100.00
34297;BME280;20564;42.902;25.336;2023-05-23T01:09:26;97017.44;;;9.14;100.00
34297;BME280;20564;42.902;25.336;2023-05-23T01:17:50;97021.72;;;9.15;100.00
34297;BME280;20564;42.902;25.336;2023-05-23T01:20:21;97021.72;;;9.15;100.00
34297;BME280;20564;42.902;25.336;2023-05-23T01:28:18;97023.69;;;9.32;100.00
34297;BME280;20564;42.902;25.336;2023-05-23T01:30:51;97022.72;;;9.33;100.00
34297;BME280;20564;42.902;25.336;2023-05-23T01:33:19;97015.25;;;9.38;100.00
34297;BME280;20564;42.902;25.336;2023-05-23T01:36:07;97023.16;;;9.48;100.00
34297;BME280;20564;42.902;25.336;2023-05-23T01:38:35;97020.38;;;9.50;100.00
34297;BME280;20564;42.902;25.336;2023-05-23T01:41:03;97019.13;;;9.54;100.00
34297;BME280;20564;42.902;25.336;2023-05-23T01:43:30;97013.31;;;9.50;100.00
34297;BME280;20564;42.902;25.336;2023-05-23T01:45:58;97015.69;;;9.53;100.00
34297;BME280;20564;42.902;25.336;2023-05-23T01:48:27;97015.97;;;9.60;100.00
34297;BME280;20564;42.902;25.336;2023-05-23T01:50:55;97014.97;;;9.61;100.00
34297;BME280;20564;42.902;25.336;2023-05-23T01:53:23;97009.91;;;9.69;100.00
34297;BME280;20564;42.902;25.336;2023-05-23T01:55:51;97012.53;;;9.69;100.00
34297;BME280;20564;42.902;25.336;2023-05-23T01:58:18;97016.53;;;9.73;100.00
34297;BME280;20564;42.902;25.336;2023-05-23T02:00:45;97011.00;;;9.76;100.00
34297;BME280;20564;42.902;25.336;2023-05-23T02:03:13;97021.22;;;9.79;100.00
34297;BME280;20564;42.902;25.336;2023-05-23T02:05:40;97020.38;;;9.88;100.00
34297;BME280;20564;42.902;25.336;2023-05-23T02:08:07;97017.06;;;9.86;100.00
34297;BME280;20564;42.902;25.336;2023-05-23T02:10:34;97015.13;;;9.88;100.00
34297;BME280;20564;42.902;25.336;2023-05-23T02:13:01;97016.22;;;9.96;100.00
34297;BME280;20564;42.902;25.336;2023-05-23T02:15:28;97022.84;;;10.00;100.00
34297;BME280;20564;42.902;25.336;2023-05-23T02:17:55;97023.25;;;10.05;100.00
34297;BME280;20564;42.902;25.336;2023-05-23T02:20:22;97017.03;;;10.06;100.00
34297;BME280;20564;42.902;25.336;2023-05-23T02:22:49;97026.72;;;10.05;100.00
34297;BME280;20564;42.902;25.336;2023-05-23T02:25:16;97026.31;;;10.10;100.00
34297;BME280;20564;42.902;25.336;2023-05-23T02:27:43;97021.72;;;10.12;100.00
34297;BME280;20564;42.902;25.336;2023-05-23T02:30:10;97020.47;;;10.16;100.00
34297;BME280;20564;42.902;25.336;2023-05-23T02:32:37;97025.72;;;10.16;100.00
34297;BME280;20564;42.902;25.336;2023-05-23T02:35:04;97025.88;;;10.14;100.00
34297;BME280;20564;42.902;25.336;2023-05-23T02:37:31;97035.28;;;10.17;100.00
34297;BME280;20564;42.902;25.336;2023-05-23T02:39:58;97023.94;;;10.17;100.00
34297;BME280;20564;42.902;25.336;2023-05-23T02:42:26;97020.47;;;10.26;100.00
34297;BME280;20564;42.902;25.336;2023-05-23T02:44:56;97019.06;;;10.22;100.00
34297;BME280;20564;42.902;25.336;2023-05-23T02:47:23;97023.94;;;10.26;100.00
34297;BME280;20564;42.902;25.336;2023-05-23T02:49:50;97024.75;;;10.27;100.00
34297;BME280;20564;42.902;25.336;2023-05-23T02:52:18;97023.22;;;10.24;100.00
34297;BME280;20564;42.902;25.336;2023-05-23T02:54:45;97025.31;;;10.30;100.00
34297;BME280;20564;42.902;25.336;2023-05-23T02:57:11;97017.69;;;10.27;100.00
34297;BME280;20564;42.902;25.336;2023-05-23T02:59:38;97021.19;;;10.28;100.00
34297;BME280;20564;42.902;25.336;2023-05-23T03:02:06;97019.50;;;10.27;100.00
34297;BME280;20564;42.902;25.336;2023-05-23T03:04:33;97023.66;;;10.29;100.00
34297;BME280;20564;42.902;25.336;2023-05-23T03:07:00;97028.09;;;10.29;100.00
34297;BME280;20564;42.902;25.336;2023-05-23T03:09:32;97017.28;;;10.32;100.00
34297;BME280;20564;42.902;25.336;2023-05-23T03:11:59;97014.41;;;10.25;100.00
34297;BME280;20564;42.902;25.336;2023-05-23T03:14:26;97019.91;;;10.22;100.00
34297;BME280;20564;42.902;25.336;2023-05-23T03:16:53;97026.16;;;10.21;100.00
34297;BME280;20564;42.902;25.336;2023-05-23T03:19:20;97024.19;;;10.23;100.00
34297;BME280;20564;42.902;25.336;2023-05-23T03:21:47;97022.69;;;10.21;100.00
34297;BME280;20564;42.902;25.336;2023-05-23T03:24:17;97018.69;;;10.26;100.00
34297;BME280;20564;42.902;25.336;2023-05-23T03:26:45;97024.06;;;10.34;100.00
34297;BME280;20564;42.902;25.336;2023-05-23T03:29:12;97028.09;;;10.29;100.00
34297;BME280;20564;42.902;25.336;2023-05-23T03:31:38;97029.56;;;10.41;100.00
34297;BME280;20564;42.902;25.336;2023-05-23T03:34:05;97024.47;;;10.40;100.00
34297;BME280;20564;42.902;25.336;2023-05-23T03:36:36;97028.28;;;10.55;100.00
34297;BME280;20564;42.902;25.336;2023-05-23T03:39:05;97024.09;;;10.62;100.00
34297;BME280;20564;42.902;25.336;2023-05-23T03:41:32;97020.78;;;10.60;100.00
34297;BME280;20564;42.902;25.336;2023-05-23T03:44:01;97020.50;;;10.63;100.00
34297;BME280;20564;42.902;25.336;2023-05-23T03:46:31;97021.72;;;10.69;100.00
34297;BME280;20564;42.902;25.336;2023-05-23T03:49:00;97017.97;;;10.71;100.00
34297;BME280;20564;42.902;25.336;2023-05-23T03:51:28;97021.00;;;10.76;100.00
34297;BME280;20564;42.902;25.336;2023-05-23T03:53:56;97029.88;;;10.75;100.00
34297;BME280;20564;42.902;25.336;2023-05-23T03:56:26;97021.50;;;10.90;100.00
34297;BME280;20564;42.902;25.336;2023-05-23T03:58:53;97023.44;;;10.88;100.00
34297;BME280;20564;42.902;25.336;2023-05-23T04:01:20;97020.25;;;10.94;100.00
34297;BME280;20564;42.902;25.336;2023-05-23T04:03:48;97032.41;;;10.95;100.00
34297;BME280;20564;42.902;25.336;2023-05-23T04:06:19;97031.97;;;10.99;100.00
34297;BME280;20564;42.902;25.336;2023-05-23T04:08:51;97037.75;;;11.13;100.00
34297;BME280;20564;42.902;25.336;2023-05-23T04:11:19;97046.31;;;11.15;100.00
34297;BME280;20564;42.902;25.336;2023-05-23T04:13:48;97036.09;;;11.12;100.00
34297;BME280;20564;42.902;25.336;2023-05-23T04:16:15;97045.44;;;11.24;100.00
34297;BME280;20564;42.902;25.336;2023-05-23T04:18:45;97042.34;;;11.28;100.00
34297;BME280;20564;42.902;25.336;2023-05-23T04:21:18;97038.06;;;11.27;100.00
34297;BME280;20564;42.902;25.336;2023-05-23T04:23:45;97045.47;;;11.42;100.00
34297;BME280;20564;42.902;25.336;2023-05-23T04:26:12;97046.53;;;11.49;100.00
34297;BME280;20564;42.902;25.336;2023-05-23T04:28:40;97039.06;;;11.62;100.00
34297;BME280;20564;42.902;25.336;2023-05-23T04:31:09;97053.81;;;11.73;100.00
34297;BME280;20564;42.902;25.336;2023-05-23T04:33:37;97046.00;;;11.81;100.00
34297;BME280;20564;42.902;25.336;2023-05-23T04:36:04;97053.50;;;11.86;100.00
34297;BME280;20564;42.902;25.336;2023-05-23T04:38:35;97051.38;;;11.89;100.00
34297;BME280;20564;42.902;25.336;2023-05-23T04:41:06;97057.25;;;12.01;100.00
34297;BME280;20564;42.902;25.336;2023-05-23T04:43:33;97060.72;;;12.01;100.00
34297;BME280;20564;42.902;25.336;2023-05-23T04:46:00;97062.59;;;12.09;100.00
34297;BME280;20564;42.902;25.336;2023-05-23T04:48:28;97064.97;;;12.20;100.00
34297;BME280;20564;42.902;25.336;2023-05-23T04:51:00;97070.47;;;12.27;100.00
34297;BME280;20564;42.902;25.336;2023-05-23T04:53:31;97063.91;;;12.31;100.00
34297;BME280;20564;42.902;25.336;2023-05-23T04:56:02;97071.22;;;12.37;100.00
34297;BME280;20564;42.902;25.336;2023-05-23T04:58:29;97074.59;;;12.47;100.00
34297;BME280;20564;42.902;25.336;2023-05-23T05:00:57;97079.09;;;12.55;100.00
34297;BME280;20564;42.902;25.336;2023-05-23T05:03:24;97069.06;;;12.59;100.00
34297;BME280;20564;42.902;25.336;2023-05-23T05:05:52;97077.63;;;12.61;100.00
34297;BME280;20564;42.902;25.336;2023-05-23T05:08:19;97073.75;;;12.73;100.00
34297;BME280;20564;42.902;25.336;2023-05-23T05:10:46;97078.28;;;12.89;100.00
34297;BME280;20564;42.902;25.336;2023-05-23T05:13:14;97079.03;;;13.07;100.00
34297;BME280;20564;42.902;25.336;2023-05-23T05:15:41;97084.22;;;13.17;100.00
34297;BME280;20564;42.902;25.336;2023-05-23T05:18:08;97076.16;;;13.26;100.00
34297;BME280;20564;42.902;25.336;2023-05-23T05:20:38;97072.56;;;13.36;100.00
34297;BME280;20564;42.902;25.336;2023-05-23T05:23:06;97074.41;;;13.43;100.00
34297;BME280;20564;42.902;25.336;2023-05-23T05:25:35;97074.75;;;13.48;100.00
34297;BME280;20564;42.902;25.336;2023-05-23T05:28:04;97068.84;;;13.63;100.00
34297;BME280;20564;42.902;25.336;2023-05-23T05:30:33;97075.97;;;13.70;100.00
34297;BME280;20564;42.902;25.336;2023-05-23T05:33:01;97075.31;;;13.85;100.00
34297;BME280;20564;42.902;25.336;2023-05-23T05:35:34;97075.69;;;14.06;100.00
34297;BME280;20564;42.902;25.336;2023-05-23T05:38:01;97066.09;;;14.13;100.00
34297;BME280;20564;42.902;25.336;2023-05-23T05:40:31;97070.72;;;14.19;100.00
34297;BME280;20564;42.902;25.336;2023-05-23T05:43:04;97066.41;;;14.35;100.00
34297;BME280;20564;42.902;25.336;2023-05-23T05:45:35;97068.91;;;14.44;100.00
34297;BME280;20564;42.902;25.336;2023-05-23T05:48:02;97078.50;;;14.54;100.00
34297;BME280;20564;42.902;25.336;2023-05-23T05:50:29;97075.16;;;14.68;100.00
34297;BME280;20564;42.902;25.336;2023-05-23T05:52:57;97072.16;;;14.79;100.00
34297;BME280;20564;42.902;25.336;2023-05-23T05:55:24;97079.94;;;14.89;100.00
34297;BME280;20564;42.902;25.336;2023-05-23T05:57:51;97074.91;;;15.02;100.00
34297;BME280;20564;42.902;25.336;2023-05-23T06:00:19;97075.22;;;15.07;100.00
34297;BME280;20564;42.902;25.336;2023-05-23T06:02:46;97072.22;;;15.18;100.00
34297;BME280;20564;42.902;25.336;2023-05-23T06:05:13;97072.75;;;15.45;100.00
34297;BME280;20564;42.902;25.336;2023-05-23T06:07:42;97066.53;;;15.69;100.00
34297;BME280;20564;42.902;25.336;2023-05-23T06:10:09;97083.47;;;15.91;100.00
34297;BME280;20564;42.902;25.336;2023-05-23T06:12:40;97069.53;;;16.35;100.00
34297;BME280;20564;42.902;25.336;2023-05-23T06:15:07;97065.84;;;16.88;100.00
34297;BME280;20564;42.902;25.336;2023-05-23T06:17:36;97064.06;;;17.40;99.84
34297;BME280;20564;42.902;25.336;2023-05-23T06:20:04;97061.28;;;17.78;98.52
34297;BME280;20564;42.902;25.336;2023-05-23T06:22:31;97057.34;;;18.17;91.68
34297;BME280;20564;42.902;25.336;2023-05-23T06:24:58;97059.34;;;18.58;90.13
34297;BME280;20564;42.902;25.336;2023-05-23T06:27:25;97062.59;;;18.81;90.72
34297;BME280;20564;42.902;25.336;2023-05-23T06:29:52;97060.94;;;19.15;88.25
34297;BME280;20564;42.902;25.336;2023-05-23T06:32:19;97057.78;;;19.39;87.10
34297;BME280;20564;42.902;25.336;2023-05-23T06:34:46;97053.44;;;19.80;87.98
34297;BME280;20564;42.902;25.336;2023-05-23T06:37:13;97064.31;;;19.85;83.32
34297;BME280;20564;42.902;25.336;2023-05-23T06:39:40;97060.22;;;19.95;83.96
34297;BME280;20564;42.902;25.336;2023-05-23T06:42:07;97058.03;;;20.19;82.57
34297;BME280;20564;42.902;25.336;2023-05-23T06:44:36;97057.00;;;20.27;82.56
34297;BME280;20564;42.902;25.336;2023-05-23T06:47:04;97059.03;;;20.31;81.83
34297;BME280;20564;42.902;25.336;2023-05-23T06:49:31;97058.44;;;20.69;81.82
34297;BME280;20564;42.902;25.336;2023-05-23T06:51:58;97055.34;;;20.85;78.85
34297;BME280;20564;42.902;25.336;2023-05-23T06:54:25;97044.81;;;21.04;79.36
34297;BME280;20564;42.902;25.336;2023-05-23T06:56:52;97047.09;;;21.00;81.13
34297;BME280;20564;42.902;25.336;2023-05-23T06:59:19;97041.63;;;21.40;80.96
34297;BME280;20564;42.902;25.336;2023-05-23T07:01:46;97040.25;;;21.76;79.26
34297;BME280;20564;42.902;25.336;2023-05-23T07:04:13;97041.34;;;21.93;76.49
34297;BME280;20564;42.902;25.336;2023-05-23T07:06:41;97044.44;;;22.28;74.67
34297;BME280;20564;42.902;25.336;2023-05-23T07:09:07;97039.09;;;22.53;74.80
34297;BME280;20564;42.902;25.336;2023-05-23T07:11:34;97041.56;;;22.73;73.45
34297;BME280;20564;42.902;25.336;2023-05-23T07:14:02;97031.31;;;22.88;68.19
34297;BME280;20564;42.902;25.336;2023-05-23T07:16:29;97037.22;;;22.79;67.79
34297;BME280;20564;42.902;25.336;2023-05-23T07:18:56;97034.63;;;22.66;68.75
34297;BME280;20564;42.902;25.336;2023-05-23T07:21:26;97024.28;;;22.69;68.37
34297;BME280;20564;42.902;25.336;2023-05-23T07:23:52;97026.69;;;22.77;69.67
34297;BME280;20564;42.902;25.336;2023-05-23T07:26:19;97025.75;;;22.90;68.19
34297;BME280;20564;42.902;25.336;2023-05-23T07:28:46;97008.72;;;22.78;68.91
34297;BME280;20564;42.902;25.336;2023-05-23T07:31:13;97012.53;;;22.88;68.32
34297;BME280;20564;42.902;25.336;2023-05-23T07:33:40;97012.41;;;23.02;66.89
34297;BME280;20564;42.902;25.336;2023-05-23T07:36:07;97008.41;;;23.29;65.48
34297;BME280;20564;42.902;25.336;2023-05-23T07:38:43;96999.94;;;23.44;65.55
34297;BME280;20564;42.902;25.336;2023-05-23T07:41:10;97003.13;;;23.53;62.84
34297;BME280;20564;42.902;25.336;2023-05-23T07:43:39;97000.75;;;23.45;63.69
34297;BME280;20564;42.902;25.336;2023-05-23T07:46:06;97008.91;;;23.38;65.12
34297;BME280;20564;42.902;25.336;2023-05-23T07:48:33;96997.03;;;23.46;65.00
34297;BME280;20564;42.902;25.336;2023-05-23T07:51:01;96998.84;;;23.82;62.70
34297;BME280;20564;42.902;25.336;2023-05-23T07:53:30;96998.03;;;23.93;62.22
34297;BME280;20564;42.902;25.336;2023-05-23T07:55:57;96995.63;;;24.03;59.30
34297;BME280;20564;42.902;25.336;2023-05-23T07:58:24;97000.84;;;23.98;61.30
34297;BME280;20564;42.902;25.336;2023-05-23T08:00:51;96999.56;;;24.01;61.11
34297;BME280;20564;42.902;25.336;2023-05-23T08:03:19;96998.56;;;24.14;59.69
34297;BME280;20564;42.902;25.336;2023-05-23T08:05:46;97001.94;;;24.09;61.21
34297;BME280;20564;42.902;25.336;2023-05-23T08:08:13;97005.03;;;23.94;61.85
34297;BME280;20564;42.902;25.336;2023-05-23T08:10:40;97001.56;;;24.05;60.83
34297;BME280;20564;42.902;25.336;2023-05-23T08:13:08;96997.50;;;24.03;59.90
34297;BME280;20564;42.902;25.336;2023-05-23T08:15:35;97004.06;;;24.30;59.36
34297;BME280;20564;42.902;25.336;2023-05-23T08:18:03;97003.66;;;24.57;58.96
34297;BME280;20564;42.902;25.336;2023-05-23T08:20:30;96996.16;;;24.36;57.91
34297;BME280;20564;42.902;25.336;2023-05-23T08:22:58;97000.75;;;24.05;58.41
34297;BME280;20564;42.902;25.336;2023-05-23T08:25:26;97003.31;;;24.00;58.26
34297;BME280;20564;42.902;25.336;2023-05-23T08:28:01;97002.16;;;23.96;57.23
34297;BME280;20564;42.902;25.336;2023-05-23T08:30:28;96991.28;;;23.42;55.70
34297;BME280;20564;42.902;25.336;2023-05-23T08:32:55;96991.25;;;23.12;56.80
34297;BME280;20564;42.902;25.336;2023-05-23T08:35:23;96988.31;;;23.14;56.72
34297;BME280;20564;42.902;25.336;2023-05-23T08:37:53;96984.78;;;22.76;58.34
34297;BME280;20564;42.902;25.336;2023-05-23T08:40:26;96991.00;;;22.52;59.69
34297;BME280;20564;42.902;25.336;2023-05-23T08:42:55;96976.88;;;22.63;57.53
34297;BME280;20564;42.902;25.336;2023-05-23T08:45:22;96983.25;;;22.87;58.08
34297;BME280;20564;42.902;25.336;2023-05-23T08:47:54;96977.94;;;22.80;55.87
34297;BME280;20564;42.902;25.336;2023-05-23T08:50:22;96984.06;;;23.06;56.79
34297;BME280;20564;42.902;25.336;2023-05-23T08:52:57;96978.16;;;23.34;58.97
34297;BME280;20564;42.902;25.336;2023-05-23T08:55:27;96974.50;;;23.28;56.20
34297;BME280;20564;42.902;25.336;2023-05-23T08:57:58;96985.66;;;22.95;56.01
34297;BME280;20564;42.902;25.336;2023-05-23T09:00:36;96986.16;;;22.85;59.17
34297;BME280;20564;42.902;25.336;2023-05-23T09:03:04;96982.88;;;23.20;54.47
34297;BME280;20564;42.902;25.336;2023-05-23T09:05:32;96974.47;;;23.47;54.21
34297;BME280;20564;42.902;25.336;2023-05-23T09:08:00;96983.69;;;23.69;52.75
34297;BME280;20564;42.902;25.336;2023-05-23T09:10:29;96978.72;;;23.54;53.92
34297;BME280;20564;42.902;25.336;2023-05-23T09:12:57;96984.50;;;23.21;57.71
34297;BME280;20564;42.902;25.336;2023-05-23T09:15:24;96978.81;;;23.48;58.45
34297;BME280;20564;42.902;25.336;2023-05-23T09:17:53;96975.38;;;24.01;57.00
34297;BME280;20564;42.902;25.336;2023-05-23T09:20:25;96977.44;;;24.64;55.26
34297;BME280;20564;42.902;25.336;2023-05-23T09:22:57;96975.88;;;25.15;53.40
34297;BME280;20564;42.902;25.336;2023-05-23T09:25:25;96964.66;;;25.47;50.34
34297;BME280;20564;42.902;25.336;2023-05-23T09:27:55;96963.38;;;25.66;48.83
34297;BME280;20564;42.902;25.336;2023-05-23T09:30:26;96974.53;;;25.30;50.64
34297;BME280;20564;42.902;25.336;2023-05-23T09:32:58;96982.00;;;24.87;51.23
34297;BME280;20564;42.902;25.336;2023-05-23T09:35:31;96978.75;;;24.73;53.14
34297;BME280;20564;42.902;25.336;2023-05-23T09:37:58;96970.56;;;24.68;52.90
34297;BME280;20564;42.902;25.336;2023-05-23T09:40:29;96976.53;;;24.47;55.49
34297;BME280;20564;42.902;25.336;2023-05-23T09:43:02;96978.59;;;24.21;54.73
34297;BME280;20564;42.902;25.336;2023-05-23T09:45:33;96976.06;;;23.85;57.29
34297;BME280;20564;42.902;25.336;2023-05-23T09:48:01;96972.44;;;23.91;55.35
34297;BME280;20564;42.902;25.336;2023-05-23T09:50:32;96978.78;;;24.20;53.28
34297;BME280;20564;42.902;25.336;2023-05-23T09:53:00;96970.28;;;24.35;51.35
34297;BME280;20564;42.902;25.336;2023-05-23T09:55:30;96973.88;;;24.05;50.40
34297;BME280;20564;42.902;25.336;2023-05-23T09:58:01;96968.94;;;24.02;51.53
34297;BME280;20564;42.902;25.336;2023-05-23T10:00:30;96970.63;;;24.15;53.24
34297;BME280;20564;42.902;25.336;2023-05-23T10:03:30;96961.94;;;24.01;50.15
34297;BME280;20564;42.902;25.336;2023-05-23T10:06:03;96966.16;;;24.20;50.04
34297;BME280;20564;42.902;25.336;2023-05-23T10:08:39;96973.47;;;24.32;51.02
34297;BME280;20564;42.902;25.336;2023-05-23T10:13:43;96956.06;;;24.58;49.38
34297;BME280;20564;42.902;25.336;2023-05-23T10:16:20;96953.22;;;24.64;48.80
34297;BME280;20564;42.902;25.336;2023-05-23T10:18:55;96956.53;;;24.54;48.48
34297;BME280;20564;42.902;25.336;2023-05-23T10:21:41;96958.97;;;24.56;49.53
34297;BME280;20564;42.902;25.336;2023-05-23T10:24:13;96968.06;;;24.32;47.83
34297;BME280;20564;42.902;25.336;2023-05-23T10:26:42;96958.50;;;23.82;47.67
34297;BME280;20564;42.902;25.336;2023-05-23T10:29:09;96959.31;;;23.52;50.58
34297;BME280;20564;42.902;25.336;2023-05-23T10:31:37;96960.13;;;23.23;51.82
34297;BME280;20564;42.902;25.336;2023-05-23T10:37:11;96954.03;;;23.76;50.68
34297;BME280;20564;42.902;25.336;2023-05-23T10:40:04;96949.09;;;24.26;50.14
34297;BME280;20564;42.902;25.336;2023-05-23T10:43:04;96946.69;;;24.48;51.13
34297;BME280;20564;42.902;25.336;2023-05-23T10:45:41;96950.88;;;24.33;51.20
34297;BME280;20564;42.902;25.336;2023-05-23T10:48:33;96957.56;;;24.42;53.28
34297;BME280;20564;42.902;25.336;2023-05-23T10:51:11;96952.66;;;24.62;49.80
34297;BME280;20564;42.902;25.336;2023-05-23T10:53:45;96946.66;;;24.60;49.95
34297;BME280;20564;42.902;25.336;2023-05-23T10:56:22;96944.78;;;24.61;48.40
34297;BME280;20564;42.902;25.336;2023-05-23T10:58:54;96943.75;;;24.73;48.55
34297;BME280;20564;42.902;25.336;2023-05-23T11:01:23;96943.50;;;24.87;47.94
34297;BME280;20564;42.902;25.336;2023-05-23T11:03:52;96936.69;;;24.96;47.29
34297;BME280;20564;42.902;25.336;2023-05-23T11:06:43;96935.06;;;24.71;48.67
34297;BME280;20564;42.902;25.336;2023-05-23T11:09:16;96935.97;;;24.89;48.62
34297;BME280;20564;42.902;25.336;2023-05-23T11:15:17;96935.22;;;24.53;48.48
34297;BME280;20564;42.902;25.336;2023-05-23T11:17:54;96928.19;;;24.52;48.40
34297;BME280;20564;42.902;25.336;2023-05-23T11:20:23;96927.41;;;24.40;50.31
34297;BME280;20564;42.902;25.336;2023-05-23T11:23:04;96935.84;;;23.78;49.28
34297;BME280;20564;42.902;25.336;2023-05-23T11:25:52;96939.56;;;23.47;50.69
34297;BME280;20564;42.902;25.336;2023-05-23T11:28:19;96933.94;;;23.67;50.91
34297;BME280;20564;42.902;25.336;2023-05-23T11:30:47;96930.03;;;24.04;50.78
34297;BME280;20564;42.902;25.336;2023-05-23T11:33:19;96915.31;;;24.30;48.27
34297;BME280;20564;42.902;25.336;2023-05-23T11:35:48;96930.19;;;24.68;50.33
34297;BME280;20564;42.902;25.336;2023-05-23T11:38:17;96930.59;;;24.89;48.71
34297;BME280;20564;42.902;25.336;2023-05-23T11:40:45;96920.31;;;25.26;46.63
34297;BME280;20564;42.902;25.336;2023-05-23T11:43:24;96912.31;;;25.43;44.64
34297;BME280;20564;42.902;25.336;2023-05-23T11:45:51;96910.63;;;25.70;47.31
34297;BME280;20564;42.902;25.336;2023-05-23T11:48:19;96903.69;;;25.74;45.83
34297;BME280;20564;42.902;25.336;2023-05-23T11:53:15;96907.69;;;25.72;45.31
34297;BME280;20564;42.902;25.336;2023-05-23T11:55:54;96902.94;;;25.62;44.48
34297;BME280;20564;42.902;25.336;2023-05-23T11:58:41;96907.84;;;25.65;42.82
34297;BME280;20564;42.902;25.336;2023-05-23T12:01:12;96899.84;;;25.54;43.90
34297;BME280;20564;42.902;25.336;2023-05-23T12:03:50;96885.28;;;25.38;42.91
34297;BME280;20564;42.902;25.336;2023-05-23T12:06:40;96890.00;;;25.47;43.77
34297;BME280;20564;42.902;25.336;2023-05-23T12:09:10;96887.09;;;25.49;45.37
34297;BME280;20564;42.902;25.336;2023-05-23T12:11:39;96892.91;;;25.74;45.62
34297;BME280;20564;42.902;25.336;2023-05-23T12:14:08;96889.50;;;25.96;43.50
34297;BME280;20564;42.902;25.336;2023-05-23T12:16:58;96880.75;;;26.06;43.44
34297;BME280;20564;42.902;25.336;2023-05-23T12:19:26;96880.44;;;26.02;43.34
34297;BME280;20564;42.902;25.336;2023-05-23T12:22:13;96882.38;;;25.73;42.68
34297;BME280;20564;42.902;25.336;2023-05-23T12:24:46;96883.84;;;25.64;44.42
34297;BME280;20564;42.902;25.336;2023-05-23T12:27:15;96882.75;;;25.48;46.97
34297;BME280;20564;42.902;25.336;2023-05-23T12:29:49;96872.13;;;25.41;44.38
34297;BME280;20564;42.902;25.336;2023-05-23T12:32:23;96876.38;;;25.54;47.17
34297;BME280;20564;42.902;25.336;2023-05-23T12:34:51;96879.75;;;25.61;44.79
34297;BME280;20564;42.902;25.336;2023-05-23T12:37:20;96874.31;;;25.44;44.01
34297;BME280;20564;42.902;25.336;2023-05-23T12:39:51;96884.28;;;25.27;44.55
34297;BME280;20564;42.902;25.336;2023-05-23T12:42:28;96890.63;;;24.69;49.69
34297;BME280;20564;42.902;25.336;2023-05-23T12:45:02;96886.69;;;24.24;51.82
34297;BME280;20564;42.902;25.336;2023-05-23T12:47:36;96889.25;;;24.08;52.11
34297;BME280;20564;42.902;25.336;2023-05-23T12:50:08;96892.34;;;23.69;52.48
34297;BME280;20564;42.902;25.336;2023-05-23T12:52:38;96893.13;;;23.28;53.48
34297;BME280;20564;42.902;25.336;2023-05-23T12:55:12;96884.56;;;22.71;54.15
34297;BME280;20564;42.902;25.336;2023-05-23T12:57:39;96891.63;;;22.47;54.40
34297;BME280;20564;42.902;25.336;2023-05-23T13:00:10;96885.94;;;22.36;56.34
34297;BME280;20564;42.902;25.336;2023-05-23T13:02:38;96895.91;;;22.29;56.89
34297;BME280;20564;42.902;25.336;2023-05-23T13:05:06;96874.47;;;22.29;58.61
34297;BME280;20564;42.902;25.336;2023-05-23T13:07:34;96886.31;;;22.22;59.02
34297;BME280;20564;42.902;25.336;2023-05-23T13:10:07;96878.44;;;22.27;58.83
34297;BME280;20564;42.902;25.336;2023-05-23T13:12:35;96880.75;;;22.23;58.44
34297;BME280;20564;42.902;25.336;2023-05-23T13:15:03;96870.69;;;22.12;58.71
34297;BME280;20564;42.902;25.336;2023-05-23T13:17:30;96869.78;;;22.00;58.82
34297;BME280;20564;42.902;25.336;2023-05-23T13:19:57;96875.09;;;22.06;58.78
34297;BME280;20564;42.902;25.336;2023-05-23T13:22:24;96869.66;;;22.13;59.20